createdAt,value
2019-03-31T00:00:14.244Z,61.43
2019-03-31T00:01:14.228Z,62.37
2019-03-31T00:02:14.256Z,63.32
2019-03-31T00:03:14.206Z,63.35
2019-03-31T00:04:14.198Z,64.92
2019-03-31T00:05:14.187Z,65.26
2019-03-31T00:06:14.176Z,66.60
2019-03-31T00:07:14.188Z,66.22
2019-03-31T00:08:14.172Z,65.60
2019-03-31T00:09:14.160Z,65.67
2019-03-31T00:10:14.135Z,65.57
2019-03-31T00:11:14.123Z,65.70
2019-03-31T00:12:14.123Z,65.80
2019-03-31T00:13:14.102Z,67.44
2019-03-31T00:14:14.087Z,67.48
2019-03-31T00:15:14.096Z,67.38
2019-03-31T00:16:14.107Z,68.40
2019-03-31T00:17:14.071Z,69.56
2019-03-31T00:18:14.047Z,69.98
2019-03-31T00:19:14.035Z,69.29
2019-03-31T00:20:14.028Z,70.94
2019-03-31T00:21:14.014Z,70.56
2019-03-31T00:22:14.073Z,71.41
2019-03-31T00:23:13.993Z,71.55
2019-03-31T00:24:13.982Z,72.61
2019-03-31T00:25:13.970Z,73.64
2019-03-31T00:26:13.959Z,73.54
2019-03-31T00:27:13.963Z,74.29
2019-03-31T00:28:13.960Z,74.08
2019-03-31T00:29:13.932Z,75.22
2019-03-31T00:30:13.915Z,75.56
2019-03-31T00:31:22.063Z,75.87
2019-03-31T00:32:14.904Z,76.01
2019-03-31T00:33:13.881Z,76.42
2019-03-31T00:34:13.882Z,77.08
2019-03-31T00:35:13.873Z,76.77
2019-03-31T00:36:13.853Z,78.35
2019-03-31T00:37:13.873Z,78.45
2019-03-31T00:38:13.843Z,79.08
2019-03-31T00:39:13.818Z,80.11
2019-03-31T00:40:13.805Z,80.00
2019-03-31T00:41:13.795Z,80.11
2019-03-31T00:42:13.799Z,80.35
2019-03-31T00:43:13.791Z,80.25
2019-03-31T00:44:13.800Z,80.60
2019-03-31T00:45:13.753Z,81.01
2019-03-31T00:46:13.742Z,81.84
2019-03-31T00:47:13.744Z,81.87
2019-03-31T00:48:13.722Z,81.70
2019-03-31T00:49:13.711Z,82.22
2019-03-31T00:50:13.728Z,83.40
2019-03-31T00:51:13.687Z,84.43
2019-03-31T00:52:13.689Z,84.22
2019-03-31T00:53:13.667Z,84.33
2019-03-31T00:54:13.655Z,83.81
2019-03-31T00:55:13.645Z,83.46
2019-03-31T00:56:13.653Z,82.70
2019-03-31T00:57:13.633Z,79.69
2019-03-31T00:58:13.612Z,77.45
2019-03-31T00:59:13.630Z,75.12
2019-03-31T01:00:13.589Z,74.16
2019-03-31T01:01:13.580Z,72.54
2019-03-31T01:02:13.612Z,71.28
2019-03-31T01:03:13.557Z,70.01
2019-03-31T01:04:13.546Z,70.11
2019-03-31T01:05:13.538Z,70.42
2019-03-31T01:06:13.532Z,70.11
2019-03-31T01:07:13.554Z,69.90
2019-03-31T01:08:13.504Z,69.15
2019-03-31T01:09:13.493Z,68.43
2019-03-31T01:10:13.482Z,68.33
2019-03-31T01:11:13.480Z,67.71
2019-03-31T01:12:13.468Z,67.71
2019-03-31T01:13:13.462Z,67.38
2019-03-31T01:14:13.439Z,67.79
2019-03-31T01:15:13.429Z,66.96
2019-03-31T01:16:13.417Z,67.48
2019-03-31T01:17:13.439Z,66.76
2019-03-31T01:18:13.413Z,67.14
2019-03-31T01:19:13.401Z,66.73
2019-03-31T01:20:13.377Z,66.45
2019-03-31T01:21:13.365Z,66.93
2019-03-31T01:22:13.359Z,66.66
2019-03-31T01:23:13.348Z,67.27
2019-03-31T01:24:13.326Z,67.07
2019-03-31T01:25:13.328Z,68.43
2019-03-31T01:26:13.306Z,68.54
2019-03-31T01:27:13.296Z,68.33
2019-03-31T01:28:13.294Z,68.54
2019-03-31T01:29:13.273Z,69.26
2019-03-31T01:30:13.263Z,69.80
2019-03-31T01:31:13.257Z,69.70
2019-03-31T01:32:13.244Z,70.01
2019-03-31T01:33:13.240Z,69.39
2019-03-31T01:34:13.220Z,70.21
2019-03-31T01:35:13.210Z,69.73
2019-03-31T01:36:13.196Z,70.14
2019-03-31T01:37:13.206Z,70.07
2019-03-31T01:38:13.213Z,70.90
2019-03-31T01:39:13.165Z,71.00
2019-03-31T01:40:13.155Z,71.51
2019-03-31T01:41:13.144Z,71.20
2019-03-31T01:42:13.135Z,70.83
2019-03-31T01:43:13.134Z,71.44
2019-03-31T01:44:13.146Z,71.86
2019-03-31T01:45:13.116Z,71.99
2019-03-31T01:46:13.120Z,72.61
2019-03-31T01:47:13.078Z,73.02
2019-03-31T01:48:13.079Z,72.85
2019-03-31T01:49:13.055Z,72.61
2019-03-31T01:50:13.046Z,72.27
2019-03-31T01:51:13.036Z,71.55
2019-03-31T01:52:13.038Z,71.86
2019-03-31T01:53:13.027Z,71.51
2019-03-31T01:54:13.001Z,70.90
2019-03-31T01:55:12.993Z,70.90
2019-03-31T01:56:12.980Z,71.24
2019-03-31T01:57:12.969Z,71.51
2019-03-31T01:58:12.996Z,71.24
2019-03-31T01:59:12.950Z,71.14
2019-03-31T02:00:12.939Z,71.34
2019-03-31T02:01:12.926Z,71.14
2019-03-31T02:02:12.915Z,71.00
2019-03-31T02:03:12.917Z,71.10
2019-03-31T02:04:12.919Z,70.93
2019-03-31T02:05:12.886Z,71.55
2019-03-31T02:06:12.875Z,71.24
2019-03-31T02:07:12.860Z,71.58
2019-03-31T02:08:12.859Z,72.09
2019-03-31T02:09:12.838Z,72.09
2019-03-31T02:10:12.852Z,71.96
2019-03-31T02:11:12.819Z,71.86
2019-03-31T02:12:12.807Z,72.92
2019-03-31T02:13:12.827Z,71.89
2019-03-31T02:14:12.784Z,71.55
2019-03-31T02:15:12.773Z,71.44
2019-03-31T02:16:12.787Z,71.51
2019-03-31T02:17:12.752Z,70.79
2019-03-31T02:18:12.739Z,70.69
2019-03-31T02:19:12.742Z,70.69
2019-03-31T02:20:12.721Z,70.90
2019-03-31T02:21:12.707Z,71.34
2019-03-31T02:22:12.728Z,71.34
2019-03-31T02:23:12.691Z,71.34
2019-03-31T02:24:12.687Z,71.44
2019-03-31T02:25:12.664Z,71.14
2019-03-31T02:26:12.655Z,71.65
2019-03-31T02:27:12.641Z,71.86
2019-03-31T02:28:12.651Z,71.48
2019-03-31T02:29:12.631Z,72.33
2019-03-31T02:30:12.612Z,73.09
2019-03-31T02:31:12.604Z,73.71
2019-03-31T02:32:23.349Z,75.01
2019-03-31T02:33:13.576Z,75.84
2019-03-31T02:34:12.602Z,76.70
2019-03-31T02:35:12.561Z,77.36
2019-03-31T02:36:12.550Z,77.87
2019-03-31T02:37:12.540Z,78.63
2019-03-31T02:38:12.522Z,79.39
2019-03-31T02:39:12.524Z,79.91
2019-03-31T02:40:12.510Z,80.57
2019-03-31T02:41:12.520Z,80.77
2019-03-31T02:42:12.493Z,81.29
2019-03-31T02:43:12.470Z,81.74
2019-03-31T02:44:12.476Z,81.95
2019-03-31T02:45:12.525Z,81.84
2019-03-31T02:46:12.443Z,82.60
2019-03-31T02:47:12.443Z,82.50
2019-03-31T02:48:12.418Z,82.44
2019-03-31T02:49:12.423Z,83.72
2019-03-31T02:50:12.396Z,83.97
2019-03-31T02:51:12.384Z,84.28
2019-03-31T02:52:12.385Z,84.52
2019-03-31T02:53:12.385Z,85.35
2019-03-31T02:54:12.390Z,84.56
2019-03-31T02:55:12.342Z,86.60
2019-03-31T02:56:12.337Z,86.74
2019-03-31T02:57:12.321Z,86.80
2019-03-31T02:58:12.313Z,86.22
2019-03-31T02:59:12.317Z,86.39
2019-03-31T03:00:12.307Z,85.38
2019-03-31T03:01:12.279Z,83.95
2019-03-31T03:02:12.282Z,82.01
2019-03-31T03:03:12.255Z,79.84
2019-03-31T03:04:12.258Z,80.67
2019-03-31T03:05:19.527Z,80.46
2019-03-31T03:06:13.237Z,79.98
2019-03-31T03:07:12.214Z,80.74
2019-03-31T03:08:12.201Z,81.71
2019-03-31T03:09:12.201Z,83.06
2019-03-31T03:10:12.185Z,83.72
2019-03-31T03:11:12.179Z,84.55
2019-03-31T03:12:12.167Z,84.44
2019-03-31T03:13:12.154Z,84.59
2019-03-31T03:14:12.146Z,85.35
2019-03-31T03:15:12.128Z,85.60
2019-03-31T03:16:12.116Z,86.02
2019-03-31T03:17:12.111Z,86.95
2019-03-31T03:18:12.109Z,86.88
2019-03-31T03:19:12.095Z,87.92
2019-03-31T03:20:12.110Z,87.92
2019-03-31T03:21:12.063Z,88.07
2019-03-31T03:22:12.051Z,88.48
2019-03-31T03:23:12.039Z,88.94
2019-03-31T03:24:12.083Z,89.62
2019-03-31T03:25:12.022Z,89.77
2019-03-31T03:26:12.012Z,89.83
2019-03-31T03:27:11.997Z,89.52
2019-03-31T03:28:11.987Z,89.42
2019-03-31T03:29:11.987Z,89.21
2019-03-31T03:30:11.999Z,90.04
2019-03-31T03:31:15.852Z,89.00
2019-03-31T03:32:12.010Z,90.04
2019-03-31T03:33:16.373Z,89.83
2019-03-31T03:34:12.932Z,89.42
2019-03-31T03:35:11.910Z,89.73
2019-03-31T03:36:11.926Z,89.77
2019-03-31T03:37:11.888Z,89.98
2019-03-31T03:38:11.879Z,90.29
2019-03-31T03:39:11.878Z,90.29
2019-03-31T03:40:11.866Z,90.44
2019-03-31T03:41:11.847Z,91.06
2019-03-31T03:42:11.860Z,91.89
2019-03-31T03:43:11.828Z,91.89
2019-03-31T03:44:11.838Z,92.10
2019-03-31T03:45:11.804Z,91.99
2019-03-31T03:46:11.792Z,92.35
2019-03-31T03:47:11.784Z,92.24
2019-03-31T03:48:11.792Z,93.39
2019-03-31T03:49:12.117Z,93.29
2019-03-31T03:50:11.769Z,92.97
2019-03-31T03:51:11.743Z,92.86
2019-03-31T03:52:11.736Z,93.39
2019-03-31T03:53:11.746Z,92.55
2019-03-31T03:54:11.728Z,92.86
2019-03-31T03:55:11.707Z,93.39
2019-03-31T03:56:11.686Z,92.66
2019-03-31T03:57:11.679Z,93.33
2019-03-31T03:58:11.666Z,93.01
2019-03-31T03:59:11.650Z,93.48
2019-03-31T04:00:11.691Z,93.99
2019-03-31T04:01:11.636Z,94.10
2019-03-31T04:02:11.619Z,94.10
2019-03-31T04:03:28.606Z,94.87
2019-03-31T04:04:12.597Z,95.25
2019-03-31T04:05:11.599Z,95.29
2019-03-31T04:06:11.587Z,94.98
2019-03-31T04:07:11.568Z,95.03
2019-03-31T04:08:11.556Z,95.29
2019-03-31T04:09:11.544Z,95.08
2019-03-31T04:10:11.545Z,94.87
2019-03-31T04:11:11.529Z,95.29
2019-03-31T04:12:11.537Z,95.02
2019-03-31T04:13:11.502Z,95.33
2019-03-31T04:14:11.491Z,95.43
2019-03-31T04:15:11.493Z,95.23
2019-03-31T04:16:11.471Z,94.60
2019-03-31T04:17:11.457Z,94.81
2019-03-31T04:18:11.472Z,95.06
2019-03-31T04:19:11.439Z,95.17
2019-03-31T04:20:11.439Z,96.52
2019-03-31T04:21:11.421Z,96.52
2019-03-31T04:22:11.411Z,96.89
2019-03-31T04:23:11.511Z,96.73
2019-03-31T04:24:11.404Z,96.94
2019-03-31T04:25:11.382Z,97.04
2019-03-31T04:26:11.362Z,97.20
2019-03-31T04:27:11.356Z,96.89
2019-03-31T04:28:11.339Z,97.56
2019-03-31T04:29:11.331Z,97.52
2019-03-31T04:30:11.350Z,97.31
2019-03-31T04:31:11.309Z,98.20
2019-03-31T04:32:11.299Z,98.17
2019-03-31T04:33:11.292Z,97.04
2019-03-31T04:34:11.281Z,92.76
2019-03-31T04:35:11.278Z,88.94
2019-03-31T04:36:11.290Z,87.04
2019-03-31T04:37:11.249Z,85.34
2019-03-31T04:38:11.237Z,83.95
2019-03-31T04:39:11.223Z,82.98
2019-03-31T04:40:11.227Z,83.09
2019-03-31T04:41:11.209Z,83.09
2019-03-31T04:42:11.205Z,83.47
2019-03-31T04:43:11.183Z,83.37
2019-03-31T04:44:11.169Z,83.78
2019-03-31T04:45:11.169Z,84.30
2019-03-31T04:46:11.153Z,83.83
2019-03-31T04:47:11.137Z,84.13
2019-03-31T04:48:11.152Z,84.44
2019-03-31T04:49:11.124Z,84.23
2019-03-31T04:50:11.120Z,84.20
2019-03-31T04:51:11.094Z,83.26
2019-03-31T04:52:11.083Z,83.00
2019-03-31T04:53:11.074Z,83.34
2019-03-31T04:54:11.095Z,84.11
2019-03-31T04:55:11.053Z,85.56
2019-03-31T04:56:11.057Z,86.18
2019-03-31T04:57:11.046Z,86.49
2019-03-31T04:58:11.020Z,87.01
2019-03-31T04:59:11.007Z,86.49
2019-03-31T05:00:11.015Z,85.25
2019-03-31T05:01:11.003Z,85.56
2019-03-31T05:02:10.976Z,86.55
2019-03-31T05:03:10.965Z,85.66
2019-03-31T05:04:10.955Z,85.87
2019-03-31T05:05:10.943Z,86.49
2019-03-31T05:06:10.969Z,86.70
2019-03-31T05:07:10.990Z,86.02
2019-03-31T05:08:10.911Z,87.47
2019-03-31T05:09:10.995Z,86.80
2019-03-31T05:10:10.890Z,85.63
2019-03-31T05:11:10.892Z,84.34
2019-03-31T05:12:10.954Z,83.75
2019-03-31T05:13:10.858Z,83.44
2019-03-31T05:14:10.846Z,82.05
2019-03-31T05:15:10.836Z,81.19
2019-03-31T05:16:10.836Z,80.63
2019-03-31T05:17:10.820Z,80.32
2019-03-31T05:18:10.811Z,79.49
2019-03-31T05:19:10.794Z,79.49
2019-03-31T05:20:10.783Z,79.49
2019-03-31T05:21:10.787Z,78.94
2019-03-31T05:22:10.762Z,78.94
2019-03-31T05:23:10.753Z,78.42
2019-03-31T05:24:10.757Z,78.42
2019-03-31T05:25:10.739Z,78.11
2019-03-31T05:26:10.733Z,78.42
2019-03-31T05:27:10.720Z,78.39
2019-03-31T05:28:10.701Z,79.15
2019-03-31T05:29:10.686Z,79.60
2019-03-31T05:30:10.707Z,79.91
2019-03-31T05:31:10.676Z,80.15
2019-03-31T05:32:10.654Z,80.26
2019-03-31T05:33:10.649Z,80.60
2019-03-31T05:34:19.012Z,81.02
2019-03-31T05:35:11.635Z,80.95
2019-03-31T05:36:10.627Z,82.86
2019-03-31T05:37:10.599Z,83.06
2019-03-31T05:38:10.594Z,82.48
2019-03-31T05:39:10.579Z,84.34
2019-03-31T05:40:10.569Z,83.83
2019-03-31T05:41:10.582Z,83.89
2019-03-31T05:42:10.568Z,82.40
2019-03-31T05:43:10.535Z,81.09
2019-03-31T05:44:10.528Z,80.22
2019-03-31T05:45:10.515Z,79.15
2019-03-31T05:46:10.514Z,78.39
2019-03-31T05:47:10.495Z,77.73
2019-03-31T05:48:10.498Z,76.87
2019-03-31T05:49:10.476Z,76.56
2019-03-31T05:50:10.467Z,75.63
2019-03-31T05:51:10.448Z,75.60
2019-03-31T05:52:10.452Z,75.39
2019-03-31T05:53:10.443Z,75.39
2019-03-31T05:54:10.441Z,74.98
2019-03-31T05:55:10.406Z,74.33
2019-03-31T05:56:10.397Z,74.08
2019-03-31T05:57:10.395Z,74.22
2019-03-31T05:58:10.375Z,74.46
2019-03-31T05:59:10.364Z,73.71
2019-03-31T06:00:10.415Z,74.33
2019-03-31T06:01:10.352Z,74.19
2019-03-31T06:02:10.341Z,72.85
2019-03-31T06:03:10.322Z,73.23
2019-03-31T06:04:10.342Z,72.37
2019-03-31T06:05:10.300Z,72.51
2019-03-31T06:06:10.310Z,70.83
2019-03-31T06:07:10.290Z,69.64
2019-03-31T06:08:10.274Z,67.86
2019-03-31T06:09:10.262Z,67.00
2019-03-31T06:10:10.247Z,65.44
2019-03-31T06:11:10.235Z,65.71
2019-03-31T06:12:10.259Z,64.79
2019-03-31T06:13:10.239Z,64.65
2019-03-31T06:14:10.203Z,63.37
2019-03-31T06:15:10.195Z,63.03
2019-03-31T06:16:10.182Z,61.13
2019-03-31T06:17:10.186Z,61.13
2019-03-31T06:18:10.166Z,61.26
2019-03-31T06:19:10.170Z,61.36
2019-03-31T06:20:10.140Z,62.21
2019-03-31T06:21:10.127Z,62.11
2019-03-31T06:22:10.129Z,61.09
2019-03-31T06:23:10.105Z,61.65
2019-03-31T06:24:10.096Z,61.08
2019-03-31T06:25:10.098Z,59.28
2019-03-31T06:26:10.101Z,59.05
2019-03-31T06:27:10.075Z,57.60
2019-03-31T06:28:10.054Z,57.21
2019-03-31T06:29:10.042Z,58.75
2019-03-31T06:30:10.032Z,58.18
2019-03-31T06:31:10.032Z,57.19
2019-03-31T06:32:10.039Z,57.52
2019-03-31T06:33:09.998Z,57.29
2019-03-31T06:34:09.987Z,57.70
2019-03-31T06:35:09.975Z,57.37
2019-03-31T06:36:09.967Z,55.74
2019-03-31T06:37:09.969Z,56.76
2019-03-31T06:38:09.977Z,55.74
2019-03-31T06:39:09.937Z,55.13
2019-03-31T06:40:09.923Z,56.27
2019-03-31T06:41:09.912Z,56.68
2019-03-31T06:42:09.915Z,57.70
2019-03-31T06:43:09.892Z,56.55
2019-03-31T06:44:09.891Z,56.48
2019-03-31T06:45:09.871Z,55.22
2019-03-31T06:46:09.858Z,54.66
2019-03-31T06:47:09.860Z,55.00
2019-03-31T06:48:09.836Z,56.37
2019-03-31T06:49:09.826Z,55.46
2019-03-31T06:50:09.825Z,57.26
2019-03-31T06:51:09.821Z,54.94
2019-03-31T06:52:09.804Z,53.59
2019-03-31T06:53:09.781Z,54.69
2019-03-31T06:54:09.771Z,53.65
2019-03-31T06:55:09.762Z,54.66
2019-03-31T06:56:09.753Z,53.83
2019-03-31T06:57:09.779Z,52.89
2019-03-31T06:58:09.749Z,53.44
2019-03-31T06:59:09.736Z,54.77
2019-03-31T07:00:09.716Z,53.50
2019-03-31T07:01:09.701Z,54.57
2019-03-31T07:02:09.695Z,55.35
2019-03-31T07:03:09.673Z,54.33
2019-03-31T07:04:09.697Z,53.67
2019-03-31T07:05:09.651Z,53.70
2019-03-31T07:06:09.648Z,53.14
2019-03-31T07:07:09.639Z,49.77
2019-03-31T07:08:09.617Z,50.94
2019-03-31T07:09:09.616Z,48.99
2019-03-31T07:10:09.694Z,48.51
2019-03-31T07:11:09.596Z,49.44
2019-03-31T07:12:09.614Z,49.85
2019-03-31T07:13:09.563Z,49.60
2019-03-31T07:14:09.552Z,49.11
2019-03-31T07:15:09.577Z,48.61
2019-03-31T07:16:09.530Z,49.70
2019-03-31T07:17:09.532Z,50.60
2019-03-31T07:18:09.509Z,49.75
2019-03-31T07:19:09.500Z,51.37
2019-03-31T07:20:09.509Z,49.58
2019-03-31T07:21:09.477Z,48.02
2019-03-31T07:22:09.476Z,47.19
2019-03-31T07:23:09.454Z,47.91
2019-03-31T07:24:09.443Z,48.24
2019-03-31T07:25:09.437Z,48.39
2019-03-31T07:26:09.449Z,49.22
2019-03-31T07:27:09.422Z,49.10
2019-03-31T07:28:09.401Z,48.57
2019-03-31T07:29:09.413Z,48.22
2019-03-31T07:30:09.379Z,45.59
2019-03-31T07:31:09.369Z,46.17
2019-03-31T07:32:09.385Z,46.37
2019-03-31T07:33:09.346Z,46.43
2019-03-31T07:34:09.334Z,45.90
2019-03-31T07:35:18.321Z,47.19
2019-03-31T07:36:10.323Z,43.62
2019-03-31T07:37:09.308Z,43.73
2019-03-31T07:38:09.326Z,46.15
2019-03-31T07:39:09.323Z,47.53
2019-03-31T07:40:09.348Z,48.49
2019-03-31T07:41:13.102Z,51.02
2019-03-31T07:42:09.421Z,49.58
2019-03-31T07:43:09.375Z,50.29
2019-03-31T07:44:09.251Z,49.45
2019-03-31T07:45:09.215Z,47.91
2019-03-31T07:46:09.206Z,47.28
2019-03-31T07:47:09.200Z,48.37
2019-03-31T07:48:09.196Z,47.59
2019-03-31T07:49:09.170Z,48.30
2019-03-31T07:50:09.175Z,48.32
2019-03-31T07:51:09.148Z,46.96
2019-03-31T07:52:09.151Z,45.89
2019-03-31T07:53:09.139Z,44.55
2019-03-31T07:54:09.115Z,46.37
2019-03-31T07:55:09.114Z,46.10
2019-03-31T07:56:09.097Z,44.31
2019-03-31T07:57:09.113Z,45.74
2019-03-31T07:58:09.085Z,44.39
2019-03-31T07:59:09.136Z,42.47
2019-03-31T08:00:09.050Z,41.59
2019-03-31T08:01:09.040Z,42.96
2019-03-31T08:02:09.027Z,42.80
2019-03-31T08:03:09.050Z,45.07
2019-03-31T08:04:09.031Z,42.72
2019-03-31T08:05:08.998Z,41.25
2019-03-31T08:06:08.990Z,42.33
2019-03-31T08:07:08.973Z,43.59
2019-03-31T08:08:08.974Z,44.53
2019-03-31T08:09:08.962Z,43.10
2019-03-31T08:10:09.003Z,39.98
2019-03-31T08:11:08.937Z,39.56
2019-03-31T08:12:08.925Z,39.94
2019-03-31T08:13:08.925Z,42.13
2019-03-31T08:14:08.904Z,41.93
2019-03-31T08:15:08.887Z,42.66
2019-03-31T08:16:08.910Z,43.08
2019-03-31T08:17:08.883Z,42.84
2019-03-31T08:18:08.886Z,45.71
2019-03-31T08:19:08.858Z,45.81
2019-03-31T08:20:08.831Z,47.23
2019-03-31T08:21:08.821Z,45.94
2019-03-31T08:22:08.843Z,46.18
2019-03-31T08:23:08.819Z,47.07
2019-03-31T08:24:08.788Z,44.86
2019-03-31T08:25:08.776Z,43.95
2019-03-31T08:26:08.769Z,43.69
2019-03-31T08:27:08.754Z,42.74
2019-03-31T08:28:08.767Z,43.38
2019-03-31T08:29:08.732Z,43.16
2019-03-31T08:30:08.723Z,42.69
2019-03-31T08:31:08.712Z,43.24
2019-03-31T08:32:08.708Z,41.47
2019-03-31T08:33:08.700Z,40.35
2019-03-31T08:34:08.695Z,42.24
2019-03-31T08:35:08.666Z,37.90
2019-03-31T08:36:08.658Z,40.25
2019-03-31T08:37:08.645Z,39.84
2019-03-31T08:38:08.645Z,40.99
2019-03-31T08:39:08.730Z,42.83
2019-03-31T08:40:08.714Z,37.10
2019-03-31T08:41:08.620Z,38.18
2019-03-31T08:42:08.597Z,37.23
2019-03-31T08:43:08.612Z,39.67
2019-03-31T08:44:08.574Z,39.15
2019-03-31T08:45:08.557Z,39.97
2019-03-31T08:46:08.588Z,41.05
2019-03-31T08:47:08.534Z,38.57
2019-03-31T08:48:08.533Z,40.71
2019-03-31T08:49:08.513Z,39.95
2019-03-31T08:50:08.503Z,43.66
2019-03-31T08:51:08.508Z,41.41
2019-03-31T08:52:08.508Z,40.35
2019-03-31T08:53:08.483Z,41.45
2019-03-31T08:54:08.462Z,41.37
2019-03-31T08:55:08.447Z,42.16
2019-03-31T08:56:08.955Z,41.45
2019-03-31T08:57:08.429Z,41.43
2019-03-31T08:58:08.457Z,45.40
2019-03-31T08:59:08.403Z,43.35
2019-03-31T09:00:08.403Z,39.73
2019-03-31T09:01:08.381Z,43.05
2019-03-31T09:02:08.385Z,40.33
2019-03-31T09:03:08.381Z,40.47
2019-03-31T09:04:08.357Z,43.38
2019-03-31T09:05:08.444Z,42.66
2019-03-31T09:06:08.342Z,41.46
2019-03-31T09:07:08.315Z,41.57
2019-03-31T09:08:08.330Z,43.46
2019-03-31T09:09:08.306Z,40.83
2019-03-31T09:10:08.286Z,41.21
2019-03-31T09:11:08.280Z,41.55
2019-03-31T09:12:08.261Z,40.75
2019-03-31T09:13:08.253Z,39.67
2019-03-31T09:14:08.250Z,40.91
2019-03-31T09:15:08.229Z,42.35
2019-03-31T09:16:08.233Z,41.25
2019-03-31T09:17:08.239Z,40.95
2019-03-31T09:18:08.217Z,41.47
2019-03-31T09:19:08.234Z,43.54
2019-03-31T09:20:08.177Z,38.62
2019-03-31T09:21:08.164Z,41.15
2019-03-31T09:22:08.153Z,40.39
2019-03-31T09:23:08.145Z,42.68
2019-03-31T09:24:08.155Z,39.25
2019-03-31T09:25:08.132Z,45.50
2019-03-31T09:26:08.110Z,38.87
2019-03-31T09:27:08.102Z,40.97
2019-03-31T09:28:08.089Z,37.95
2019-03-31T09:29:08.094Z,39.93
2019-03-31T09:30:08.067Z,40.09
2019-03-31T09:31:08.072Z,39.79
2019-03-31T09:32:08.047Z,37.38
2019-03-31T09:33:08.053Z,39.73
2019-03-31T09:34:08.049Z,40.83
2019-03-31T09:35:08.031Z,38.95
2019-03-31T09:36:16.020Z,39.73
2019-03-31T09:37:09.030Z,39.50
2019-03-31T09:38:07.984Z,36.51
2019-03-31T09:39:07.990Z,39.79
2019-03-31T09:40:07.957Z,37.08
2019-03-31T09:41:07.954Z,38.20
2019-03-31T09:42:07.943Z,39.67
2019-03-31T09:43:07.948Z,38.24
2019-03-31T09:44:07.944Z,36.96
2019-03-31T09:45:07.906Z,38.89
2019-03-31T09:46:07.891Z,38.36
2019-03-31T09:47:07.882Z,40.94
2019-03-31T09:48:07.873Z,38.06
2019-03-31T09:49:07.904Z,37.31
2019-03-31T09:50:07.849Z,38.15
2019-03-31T09:51:07.839Z,42.91
2019-03-31T09:52:07.829Z,39.46
2019-03-31T09:53:07.820Z,39.32
2019-03-31T09:54:07.818Z,38.42
2019-03-31T09:55:07.814Z,38.72
2019-03-31T09:56:07.806Z,38.50
2019-03-31T09:57:07.786Z,36.15
2019-03-31T09:58:07.794Z,38.24
2019-03-31T09:59:07.788Z,38.62
2019-03-31T10:00:07.744Z,38.34
2019-03-31T10:01:08.285Z,38.74
2019-03-31T10:02:07.735Z,38.72
2019-03-31T10:03:07.735Z,37.30
2019-03-31T10:04:07.731Z,37.88
2019-03-31T10:05:07.740Z,37.97
2019-03-31T10:06:11.044Z,37.12
2019-03-31T10:07:07.669Z,38.48
2019-03-31T10:08:07.659Z,37.37
2019-03-31T10:09:07.646Z,38.90
2019-03-31T10:10:07.657Z,36.91
2019-03-31T10:11:07.638Z,37.14
2019-03-31T10:12:07.728Z,37.56
2019-03-31T10:13:07.611Z,37.58
2019-03-31T10:14:07.612Z,40.61
2019-03-31T10:15:07.617Z,39.26
2019-03-31T10:16:07.589Z,38.66
2019-03-31T10:17:07.570Z,38.16
2019-03-31T10:18:07.581Z,42.21
2019-03-31T10:19:07.540Z,37.60
2019-03-31T10:20:07.542Z,38.02
2019-03-31T10:21:07.547Z,37.27
2019-03-31T10:22:07.515Z,40.19
2019-03-31T10:23:07.524Z,38.81
2019-03-31T10:24:07.492Z,42.99
2019-03-31T10:25:07.489Z,38.79
2019-03-31T10:26:07.468Z,38.59
2019-03-31T10:27:07.458Z,41.08
2019-03-31T10:28:07.455Z,38.68
2019-03-31T10:29:07.466Z,41.58
2019-03-31T10:30:07.464Z,39.94
2019-03-31T10:31:07.443Z,38.42
2019-03-31T10:32:07.425Z,41.74
2019-03-31T10:33:07.487Z,39.42
2019-03-31T10:34:07.439Z,38.02
2019-03-31T10:35:07.388Z,37.40
2019-03-31T10:36:07.367Z,40.36
2019-03-31T10:37:07.475Z,37.40
2019-03-31T10:38:07.353Z,38.42
2019-03-31T10:39:07.337Z,37.74
2019-03-31T10:40:07.340Z,38.20
2019-03-31T10:41:07.325Z,39.01
2019-03-31T10:42:07.302Z,38.78
2019-03-31T10:43:07.291Z,38.44
2019-03-31T10:44:07.281Z,38.02
2019-03-31T10:45:07.352Z,36.84
2019-03-31T10:46:07.272Z,38.76
2019-03-31T10:47:07.252Z,39.52
2019-03-31T10:48:19.541Z,40.50
2019-03-31T10:49:08.285Z,40.78
2019-03-31T10:50:07.231Z,38.76
2019-03-31T10:51:07.208Z,37.47
2019-03-31T10:52:07.197Z,38.18
2019-03-31T10:53:07.196Z,39.78
2019-03-31T10:54:07.183Z,39.58
2019-03-31T10:55:07.316Z,36.79
2019-03-31T10:56:07.159Z,38.40
2019-03-31T10:57:07.147Z,36.91
2019-03-31T10:58:07.171Z,37.08
2019-03-31T10:59:07.126Z,37.60
2019-03-31T11:00:07.134Z,41.96
2019-03-31T11:01:07.106Z,36.87
2019-03-31T11:02:07.092Z,37.04
2019-03-31T11:03:07.087Z,38.48
2019-03-31T11:04:07.073Z,37.84
2019-03-31T11:05:07.083Z,39.56
2019-03-31T11:06:07.112Z,35.59
2019-03-31T11:07:07.049Z,38.67
2019-03-31T11:08:07.037Z,36.47
2019-03-31T11:09:07.031Z,38.17
2019-03-31T11:10:07.024Z,37.55
2019-03-31T11:11:07.015Z,35.81
2019-03-31T11:12:06.992Z,37.23
2019-03-31T11:13:06.990Z,39.98
2019-03-31T11:14:06.976Z,35.19
2019-03-31T11:15:06.988Z,36.21
2019-03-31T11:16:06.953Z,36.82
2019-03-31T11:17:06.965Z,38.84
2019-03-31T11:18:06.939Z,38.44
2019-03-31T11:19:06.917Z,38.60
2019-03-31T11:20:07.014Z,36.61
2019-03-31T11:21:06.897Z,36.80
2019-03-31T11:22:06.899Z,36.69
2019-03-31T11:23:06.882Z,38.60
2019-03-31T11:24:06.882Z,37.98
2019-03-31T11:25:19.925Z,37.25
2019-03-31T11:26:07.860Z,36.35
2019-03-31T11:27:06.854Z,37.49
2019-03-31T11:28:06.863Z,38.07
2019-03-31T11:29:06.829Z,37.97
2019-03-31T11:30:06.823Z,39.53
2019-03-31T11:31:06.833Z,36.05
2019-03-31T11:32:06.779Z,35.97
2019-03-31T11:33:07.685Z,38.48
2019-03-31T11:34:06.784Z,38.76
2019-03-31T11:35:06.801Z,37.40
2019-03-31T11:36:06.737Z,37.90
2019-03-31T11:37:13.526Z,38.60
2019-03-31T11:38:07.724Z,38.80
2019-03-31T11:39:06.766Z,38.50
2019-03-31T11:40:06.729Z,37.34
2019-03-31T11:41:06.691Z,40.01
2019-03-31T11:42:06.674Z,39.52
2019-03-31T11:43:06.679Z,40.20
2019-03-31T11:44:06.653Z,38.10
2019-03-31T11:45:06.641Z,38.17
2019-03-31T11:46:06.670Z,38.46
2019-03-31T11:47:06.622Z,39.94
2019-03-31T11:48:06.609Z,36.87
2019-03-31T11:49:06.600Z,38.56
2019-03-31T11:50:06.594Z,38.15
2019-03-31T11:51:06.631Z,39.74
2019-03-31T11:52:06.572Z,38.25
2019-03-31T11:53:06.560Z,38.39
2019-03-31T11:54:06.553Z,38.17
2019-03-31T11:55:06.542Z,39.94
2019-03-31T11:56:06.540Z,37.85
2019-03-31T11:57:06.526Z,39.40
2019-03-31T11:58:06.622Z,42.07
2019-03-31T11:59:06.508Z,38.11
2019-03-31T12:00:06.496Z,37.07
2019-03-31T12:01:06.517Z,38.35
2019-03-31T12:02:06.485Z,37.35
2019-03-31T12:03:06.474Z,39.72
2019-03-31T12:04:06.449Z,36.95
2019-03-31T12:05:06.450Z,40.26
2019-03-31T12:06:06.444Z,37.17
2019-03-31T12:07:06.429Z,42.53
2019-03-31T12:08:06.480Z,40.70
2019-03-31T12:09:06.442Z,38.79
2019-03-31T12:10:06.389Z,38.49
2019-03-31T12:11:06.418Z,37.92
2019-03-31T12:12:06.387Z,37.12
2019-03-31T12:13:06.359Z,36.67
2019-03-31T12:14:06.348Z,38.09
2019-03-31T12:15:06.343Z,37.32
2019-03-31T12:16:06.411Z,38.20
2019-03-31T12:17:06.335Z,40.74
2019-03-31T12:18:06.314Z,36.04
2019-03-31T12:19:06.308Z,40.82
2019-03-31T12:20:06.298Z,41.87
2019-03-31T12:21:06.291Z,35.31
2019-03-31T12:22:06.327Z,36.47
2019-03-31T12:23:06.271Z,35.10
2019-03-31T12:24:06.255Z,37.48
2019-03-31T12:25:06.256Z,39.13
2019-03-31T12:26:06.298Z,36.61
2019-03-31T12:27:06.219Z,36.94
2019-03-31T12:28:06.216Z,34.88
2019-03-31T12:29:06.204Z,37.36
2019-03-31T12:30:06.216Z,36.65
2019-03-31T12:31:06.194Z,35.75
2019-03-31T12:32:06.177Z,36.96
2019-03-31T12:33:06.158Z,36.98
2019-03-31T12:34:06.205Z,39.39
2019-03-31T12:35:06.149Z,38.87
2019-03-31T12:36:06.149Z,35.41
2019-03-31T12:37:06.125Z,37.21
2019-03-31T12:38:06.215Z,36.14
2019-03-31T12:39:06.115Z,38.71
2019-03-31T12:40:06.082Z,38.67
2019-03-31T12:41:06.114Z,38.35
2019-03-31T12:42:06.080Z,36.29
2019-03-31T12:43:06.058Z,37.00
2019-03-31T12:44:06.050Z,35.49
2019-03-31T12:45:06.035Z,36.77
2019-03-31T12:46:06.104Z,35.74
2019-03-31T12:47:06.029Z,37.92
2019-03-31T12:48:06.009Z,36.36
2019-03-31T12:49:05.993Z,39.43
2019-03-31T12:50:06.000Z,36.32
2019-03-31T12:51:05.993Z,36.66
2019-03-31T12:52:06.007Z,35.17